sensor_id;sensor_type;location;lat;lon;timestamp;P1;durP1;ratioP1;P2;durP2;ratioP2
75732;SDS011;73508;47.450;19.128;2024-01-15T00:01:06;48.80;;;18.90;;
75732;SDS011;73508;47.450;19.128;2024-01-15T00:03:32;42.30;;;18.77;;
75732;SDS011;73508;47.450;19.128;2024-01-15T00:05:57;39.97;;;17.70;;
75732;SDS011;73508;47.450;19.128;2024-01-15T00:08:23;42.13;;;19.00;;
75732;SDS011;73508;47.450;19.128;2024-01-15T00:10:48;48.03;;;19.97;;
75732;SDS011;73508;47.450;19.128;2024-01-15T00:13:13;38.28;;;17.55;;
75732;SDS011;73508;47.450;19.128;2024-01-15T00:15:39;47.20;;;19.83;;
75732;SDS011;73508;47.450;19.128;2024-01-15T00:18:04;43.53;;;19.10;;
75732;SDS011;73508;47.450;19.128;2024-01-15T00:20:30;45.60;;;20.67;;
75732;SDS011;73508;47.450;19.128;2024-01-15T00:22:55;43.67;;;19.90;;
75732;SDS011;73508;47.450;19.128;2024-01-15T00:25:21;48.00;;;21.17;;
75732;SDS011;73508;47.450;19.128;2024-01-15T00:27:46;42.20;;;19.17;;
75732;SDS011;73508;47.450;19.128;2024-01-15T00:30:11;45.17;;;20.10;;
75732;SDS011;73508;47.450;19.128;2024-01-15T00:32:37;51.90;;;20.90;;
75732;SDS011;73508;47.450;19.128;2024-01-15T00:35:02;42.50;;;18.37;;
75732;SDS011;73508;47.450;19.128;2024-01-15T00:37:28;47.33;;;20.75;;
75732;SDS011;73508;47.450;19.128;2024-01-15T00:39:54;47.57;;;18.03;;
75732;SDS011;73508;47.450;19.128;2024-01-15T00:42:19;39.83;;;18.33;;
75732;SDS011;73508;47.450;19.128;2024-01-15T00:44:44;41.93;;;18.73;;
75732;SDS011;73508;47.450;19.128;2024-01-15T00:47:09;42.57;;;18.83;;
75732;SDS011;73508;47.450;19.128;2024-01-15T00:49:35;47.83;;;19.00;;
75732;SDS011;73508;47.450;19.128;2024-01-15T00:52:00;39.17;;;18.33;;
75732;SDS011;73508;47.450;19.128;2024-01-15T00:54:26;41.22;;;18.45;;
75732;SDS011;73508;47.450;19.128;2024-01-15T00:56:51;41.60;;;17.83;;
75732;SDS011;73508;47.450;19.128;2024-01-15T00:59:17;41.47;;;18.23;;
75732;SDS011;73508;47.450;19.128;2024-01-15T01:01:42;45.60;;;19.15;;
75732;SDS011;73508;47.450;19.128;2024-01-15T01:04:11;44.47;;;19.30;;
75732;SDS011;73508;47.450;19.128;2024-01-15T01:06:36;40.17;;;17.12;;
75732;SDS011;73508;47.450;19.128;2024-01-15T01:09:01;43.90;;;19.47;;
75732;SDS011;73508;47.450;19.128;2024-01-15T01:11:27;40.03;;;18.57;;
75732;SDS011;73508;47.450;19.128;2024-01-15T01:13:52;44.77;;;17.87;;
75732;SDS011;73508;47.450;19.128;2024-01-15T01:16:17;37.55;;;16.87;;
75732;SDS011;73508;47.450;19.128;2024-01-15T01:18:43;32.07;;;15.80;;
75732;SDS011;73508;47.450;19.128;2024-01-15T01:21:08;37.73;;;16.47;;
75732;SDS011;73508;47.450;19.128;2024-01-15T01:23:33;42.57;;;18.67;;
75732;SDS011;73508;47.450;19.128;2024-01-15T01:25:59;41.33;;;17.67;;
75732;SDS011;73508;47.450;19.128;2024-01-15T01:28:24;40.97;;;17.47;;
75732;SDS011;73508;47.450;19.128;2024-01-15T01:30:49;40.60;;;17.73;;
75732;SDS011;73508;47.450;19.128;2024-01-15T01:33:15;43.83;;;17.97;;
75732;SDS011;73508;47.450;19.128;2024-01-15T01:35:40;40.80;;;18.40;;
75732;SDS011;73508;47.450;19.128;2024-01-15T01:38:06;39.67;;;18.27;;
75732;SDS011;73508;47.450;19.128;2024-01-15T01:40:31;41.77;;;19.93;;
75732;SDS011;73508;47.450;19.128;2024-01-15T01:42:56;41.27;;;16.80;;
75732;SDS011;73508;47.450;19.128;2024-01-15T01:45:21;28.27;;;13.83;;
75732;SDS011;73508;47.450;19.128;2024-01-15T01:47:47;47.63;;;20.23;;
75732;SDS011;73508;47.450;19.128;2024-01-15T01:50:12;47.70;;;20.65;;
75732;SDS011;73508;47.450;19.128;2024-01-15T01:52:38;40.37;;;18.60;;
75732;SDS011;73508;47.450;19.128;2024-01-15T01:55:04;43.38;;;18.27;;
75732;SDS011;73508;47.450;19.128;2024-01-15T01:57:31;41.97;;;19.52;;
75732;SDS011;73508;47.450;19.128;2024-01-15T01:59:58;45.20;;;20.20;;
75732;SDS011;73508;47.450;19.128;2024-01-15T02:02:24;45.57;;;20.30;;
75732;SDS011;73508;47.450;19.128;2024-01-15T02:04:50;39.33;;;17.77;;
75732;SDS011;73508;47.450;19.128;2024-01-15T02:07:15;45.07;;;20.60;;
75732;SDS011;73508;47.450;19.128;2024-01-15T02:09:42;47.38;;;20.98;;
75732;SDS011;73508;47.450;19.128;2024-01-15T02:12:08;44.65;;;18.62;;
75732;SDS011;73508;47.450;19.128;2024-01-15T02:14:34;42.37;;;20.23;;
75732;SDS011;73508;47.450;19.128;2024-01-15T02:16:59;42.67;;;18.87;;
75732;SDS011;73508;47.450;19.128;2024-01-15T02:19:25;43.57;;;19.67;;
75732;SDS011;73508;47.450;19.128;2024-01-15T02:21:50;40.13;;;18.33;;
75732;SDS011;73508;47.450;19.128;2024-01-15T02:24:15;36.93;;;16.83;;
75732;SDS011;73508;47.450;19.128;2024-01-15T02:26:41;44.42;;;20.12;;
75732;SDS011;73508;47.450;19.128;2024-01-15T02:29:09;39.20;;;17.57;;
75732;SDS011;73508;47.450;19.128;2024-01-15T02:31:38;38.63;;;17.73;;
75732;SDS011;73508;47.450;19.128;2024-01-15T02:34:04;45.38;;;18.58;;
75732;SDS011;73508;47.450;19.128;2024-01-15T02:36:29;45.57;;;18.43;;
75732;SDS011;73508;47.450;19.128;2024-01-15T02:38:54;46.35;;;19.52;;
75732;SDS011;73508;47.450;19.128;2024-01-15T02:41:20;43.57;;;18.90;;
75732;SDS011;73508;47.450;19.128;2024-01-15T02:43:45;42.23;;;19.87;;
75732;SDS011;73508;47.450;19.128;2024-01-15T02:46:10;47.47;;;19.47;;
75732;SDS011;73508;47.450;19.128;2024-01-15T02:48:36;42.63;;;16.87;;
75732;SDS011;73508;47.450;19.128;2024-01-15T02:51:01;44.60;;;18.20;;
75732;SDS011;73508;47.450;19.128;2024-01-15T02:53:27;43.85;;;18.98;;
75732;SDS011;73508;47.450;19.128;2024-01-15T02:55:52;47.43;;;18.77;;
75732;SDS011;73508;47.450;19.128;2024-01-15T02:58:17;40.97;;;17.33;;
75732;SDS011;73508;47.450;19.128;2024-01-15T03:00:43;41.43;;;18.23;;
75732;SDS011;73508;47.450;19.128;2024-01-15T03:03:08;45.60;;;19.70;;
75732;SDS011;73508;47.450;19.128;2024-01-15T03:05:34;42.47;;;18.48;;
75732;SDS011;73508;47.450;19.128;2024-01-15T03:07:59;41.30;;;19.70;;
75732;SDS011;73508;47.450;19.128;2024-01-15T03:10:24;42.27;;;19.13;;
75732;SDS011;73508;47.450;19.128;2024-01-15T03:12:50;42.37;;;18.23;;
75732;SDS011;73508;47.450;19.128;2024-01-15T03:15:15;41.03;;;18.10;;
75732;SDS011;73508;47.450;19.128;2024-01-15T03:17:43;46.40;;;17.70;;
75732;SDS011;73508;47.450;19.128;2024-01-15T03:20:09;37.28;;;18.50;;
75732;SDS011;73508;47.450;19.128;2024-01-15T03:22:35;43.08;;;18.30;;
75732;SDS011;73508;47.450;19.128;2024-01-15T03:25:00;43.60;;;18.13;;
75732;SDS011;73508;47.450;19.128;2024-01-15T03:27:25;44.50;;;18.93;;
75732;SDS011;73508;47.450;19.128;2024-01-15T03:29:51;42.13;;;17.10;;
75732;SDS011;73508;47.450;19.128;2024-01-15T03:32:16;43.28;;;19.40;;
75732;SDS011;73508;47.450;19.128;2024-01-15T03:34:42;35.03;;;17.43;;
75732;SDS011;73508;47.450;19.128;2024-01-15T03:37:07;42.93;;;19.23;;
75732;SDS011;73508;47.450;19.128;2024-01-15T03:39:32;43.17;;;18.73;;
75732;SDS011;73508;47.450;19.128;2024-01-15T03:41:58;43.50;;;18.53;;
75732;SDS011;73508;47.450;19.128;2024-01-15T03:44:23;44.30;;;19.63;;
75732;SDS011;73508;47.450;19.128;2024-01-15T03:46:48;44.43;;;20.07;;
75732;SDS011;73508;47.450;19.128;2024-01-15T03:49:14;36.63;;;17.57;;
75732;SDS011;73508;47.450;19.128;2024-01-15T03:51:39;47.55;;;20.17;;
75732;SDS011;73508;47.450;19.128;2024-01-15T03:54:04;44.00;;;19.80;;
75732;SDS011;73508;47.450;19.128;2024-01-15T03:56:30;48.13;;;19.60;;
75732;SDS011;73508;47.450;19.128;2024-01-15T03:58:55;38.90;;;18.90;;
75732;SDS011;73508;47.450;19.128;2024-01-15T04:01:20;47.77;;;20.17;;
75732;SDS011;73508;47.450;19.128;2024-01-15T04:03:46;36.13;;;18.43;;
75732;SDS011;73508;47.450;19.128;2024-01-15T04:06:11;34.47;;;16.20;;
75732;SDS011;73508;47.450;19.128;2024-01-15T04:08:36;36.92;;;16.15;;
75732;SDS011;73508;47.450;19.128;2024-01-15T04:11:02;41.97;;;18.80;;
75732;SDS011;73508;47.450;19.128;2024-01-15T04:13:27;42.53;;;19.73;;
75732;SDS011;73508;47.450;19.128;2024-01-15T04:15:53;35.97;;;15.57;;
75732;SDS011;73508;47.450;19.128;2024-01-15T04:18:18;42.03;;;18.43;;
75732;SDS011;73508;47.450;19.128;2024-01-15T04:20:43;39.83;;;17.97;;
75732;SDS011;73508;47.450;19.128;2024-01-15T04:23:09;42.93;;;17.83;;
75732;SDS011;73508;47.450;19.128;2024-01-15T04:25:34;35.80;;;16.73;;
75732;SDS011;73508;47.450;19.128;2024-01-15T04:27:59;37.70;;;17.53;;
75732;SDS011;73508;47.450;19.128;2024-01-15T04:30:25;41.03;;;18.33;;
75732;SDS011;73508;47.450;19.128;2024-01-15T04:32:50;36.03;;;17.12;;
75732;SDS011;73508;47.450;19.128;2024-01-15T04:35:15;35.97;;;16.83;;
75732;SDS011;73508;47.450;19.128;2024-01-15T04:37:41;32.60;;;15.70;;
75732;SDS011;73508;47.450;19.128;2024-01-15T04:40:06;41.10;;;18.27;;
75732;SDS011;73508;47.450;19.128;2024-01-15T04:42:32;39.50;;;18.05;;
75732;SDS011;73508;47.450;19.128;2024-01-15T04:44:58;35.13;;;16.53;;
75732;SDS011;73508;47.450;19.128;2024-01-15T04:47:23;43.83;;;18.43;;
75732;SDS011;73508;47.450;19.128;2024-01-15T04:49:48;41.73;;;18.13;;
75732;SDS011;73508;47.450;19.128;2024-01-15T04:52:14;39.38;;;17.90;;
75732;SDS011;73508;47.450;19.128;2024-01-15T04:54:39;41.03;;;18.30;;
75732;SDS011;73508;47.450;19.128;2024-01-15T04:57:05;27.13;;;14.33;;
75732;SDS011;73508;47.450;19.128;2024-01-15T04:59:30;41.90;;;18.40;;
75732;SDS011;73508;47.450;19.128;2024-01-15T05:01:56;35.43;;;14.80;;
75732;SDS011;73508;47.450;19.128;2024-01-15T05:04:21;39.03;;;17.02;;
75732;SDS011;73508;47.450;19.128;2024-01-15T05:06:47;38.87;;;16.60;;
75732;SDS011;73508;47.450;19.128;2024-01-15T05:09:12;38.90;;;16.23;;
75732;SDS011;73508;47.450;19.128;2024-01-15T05:11:38;45.15;;;19.33;;
75732;SDS011;73508;47.450;19.128;2024-01-15T05:14:04;48.90;;;21.90;;
75732;SDS011;73508;47.450;19.128;2024-01-15T05:16:29;41.57;;;18.77;;
75732;SDS011;73508;47.450;19.128;2024-01-15T05:18:54;41.47;;;19.10;;
75732;SDS011;73508;47.450;19.128;2024-01-15T05:21:20;43.73;;;19.50;;
75732;SDS011;73508;47.450;19.128;2024-01-15T05:23:45;37.20;;;18.67;;
75732;SDS011;73508;47.450;19.128;2024-01-15T05:26:10;46.60;;;20.63;;
75732;SDS011;73508;47.450;19.128;2024-01-15T05:28:36;47.60;;;21.00;;
75732;SDS011;73508;47.450;19.128;2024-01-15T05:31:01;38.85;;;18.83;;
75732;SDS011;73508;47.450;19.128;2024-01-15T05:33:26;42.33;;;20.23;;
75732;SDS011;73508;47.450;19.128;2024-01-15T05:35:52;46.10;;;21.00;;
75732;SDS011;73508;47.450;19.128;2024-01-15T05:38:18;40.45;;;19.52;;
75732;SDS011;73508;47.450;19.128;2024-01-15T05:40:44;47.83;;;21.77;;
75732;SDS011;73508;47.450;19.128;2024-01-15T05:43:09;46.33;;;19.93;;
75732;SDS011;73508;47.450;19.128;2024-01-15T05:45:35;49.37;;;20.23;;
75732;SDS011;73508;47.450;19.128;2024-01-15T05:48:00;47.88;;;22.50;;
75732;SDS011;73508;47.450;19.128;2024-01-15T05:50:26;46.80;;;21.40;;
75732;SDS011;73508;47.450;19.128;2024-01-15T05:52:51;48.03;;;22.17;;
75732;SDS011;73508;47.450;19.128;2024-01-15T05:55:17;47.45;;;22.35;;
75732;SDS011;73508;47.450;19.128;2024-01-15T05:57:43;47.83;;;21.55;;
75732;SDS011;73508;47.450;19.128;2024-01-15T06:00:09;47.40;;;21.87;;
75732;SDS011;73508;47.450;19.128;2024-01-15T06:02:35;43.00;;;20.92;;
75732;SDS011;73508;47.450;19.128;2024-01-15T06:05:01;46.60;;;22.37;;
75732;SDS011;73508;47.450;19.128;2024-01-15T06:07:27;48.13;;;22.98;;
75732;SDS011;73508;47.450;19.128;2024-01-15T06:09:53;54.60;;;23.17;;
75732;SDS011;73508;47.450;19.128;2024-01-15T06:12:18;50.80;;;22.80;;
75732;SDS011;73508;47.450;19.128;2024-01-15T06:14:43;50.13;;;24.10;;
75732;SDS011;73508;47.450;19.128;2024-01-15T06:17:09;47.93;;;22.60;;
75732;SDS011;73508;47.450;19.128;2024-01-15T06:19:34;50.67;;;22.27;;
75732;SDS011;73508;47.450;19.128;2024-01-15T06:22:00;48.47;;;22.70;;
75732;SDS011;73508;47.450;19.128;2024-01-15T06:24:25;52.13;;;22.43;;
75732;SDS011;73508;47.450;19.128;2024-01-15T06:26:50;57.33;;;22.83;;
75732;SDS011;73508;47.450;19.128;2024-01-15T06:29:16;46.97;;;20.65;;
75732;SDS011;73508;47.450;19.128;2024-01-15T06:31:41;52.07;;;22.37;;
75732;SDS011;73508;47.450;19.128;2024-01-15T06:34:06;48.73;;;22.10;;
75732;SDS011;73508;47.450;19.128;2024-01-15T06:36:32;51.57;;;23.47;;
75732;SDS011;73508;47.450;19.128;2024-01-15T06:38:57;46.33;;;20.27;;
75732;SDS011;73508;47.450;19.128;2024-01-15T06:41:22;52.97;;;22.97;;
75732;SDS011;73508;47.450;19.128;2024-01-15T06:43:48;53.70;;;23.10;;
75732;SDS011;73508;47.450;19.128;2024-01-15T06:46:19;42.27;;;19.40;;
75732;SDS011;73508;47.450;19.128;2024-01-15T06:48:46;55.92;;;25.23;;
75732;SDS011;73508;47.450;19.128;2024-01-15T06:51:15;51.53;;;21.90;;
75732;SDS011;73508;47.450;19.128;2024-01-15T06:53:40;56.10;;;22.97;;
75732;SDS011;73508;47.450;19.128;2024-01-15T06:56:06;54.03;;;22.67;;
75732;SDS011;73508;47.450;19.128;2024-01-15T06:58:32;51.03;;;21.30;;
75732;SDS011;73508;47.450;19.128;2024-01-15T07:00:57;56.87;;;25.00;;
75732;SDS011;73508;47.450;19.128;2024-01-15T07:03:23;55.00;;;24.33;;
75732;SDS011;73508;47.450;19.128;2024-01-15T07:05:49;52.63;;;24.80;;
75732;SDS011;73508;47.450;19.128;2024-01-15T07:08:14;55.60;;;25.80;;
75732;SDS011;73508;47.450;19.128;2024-01-15T07:10:39;49.57;;;21.83;;
75732;SDS011;73508;47.450;19.128;2024-01-15T07:13:05;50.10;;;25.33;;
75732;SDS011;73508;47.450;19.128;2024-01-15T07:15:30;58.03;;;24.83;;
75732;SDS011;73508;47.450;19.128;2024-01-15T07:17:56;52.20;;;25.63;;
75732;SDS011;73508;47.450;19.128;2024-01-15T07:20:21;52.45;;;24.45;;
75732;SDS011;73508;47.450;19.128;2024-01-15T07:22:47;60.60;;;24.80;;
75732;SDS011;73508;47.450;19.128;2024-01-15T07:25:12;58.63;;;24.00;;
75732;SDS011;73508;47.450;19.128;2024-01-15T07:27:37;53.53;;;23.63;;
75732;SDS011;73508;47.450;19.128;2024-01-15T07:30:03;55.90;;;26.35;;
75732;SDS011;73508;47.450;19.128;2024-01-15T07:32:30;55.37;;;25.43;;
75732;SDS011;73508;47.450;19.128;2024-01-15T07:34:56;55.75;;;23.85;;
75732;SDS011;73508;47.450;19.128;2024-01-15T07:37:22;56.80;;;25.80;;
75732;SDS011;73508;47.450;19.128;2024-01-15T07:39:48;57.10;;;26.33;;
75732;SDS011;73508;47.450;19.128;2024-01-15T07:42:13;54.65;;;26.17;;
75732;SDS011;73508;47.450;19.128;2024-01-15T07:44:39;59.80;;;25.87;;
75732;SDS011;73508;47.450;19.128;2024-01-15T07:47:04;63.50;;;27.57;;
75732;SDS011;73508;47.450;19.128;2024-01-15T07:49:30;58.35;;;25.27;;
75732;SDS011;73508;47.450;19.128;2024-01-15T07:51:55;59.67;;;26.80;;
75732;SDS011;73508;47.450;19.128;2024-01-15T07:54:20;58.77;;;27.13;;
75732;SDS011;73508;47.450;19.128;2024-01-15T07:56:52;64.37;;;27.27;;
75732;SDS011;73508;47.450;19.128;2024-01-15T07:59:25;64.50;;;27.33;;
75732;SDS011;73508;47.450;19.128;2024-01-15T08:01:51;60.93;;;26.43;;
75732;SDS011;73508;47.450;19.128;2024-01-15T08:04:17;75.13;;;28.83;;
75732;SDS011;73508;47.450;19.128;2024-01-15T08:06:42;66.43;;;29.07;;
75732;SDS011;73508;47.450;19.128;2024-01-15T08:09:07;65.90;;;28.38;;
75732;SDS011;73508;47.450;19.128;2024-01-15T08:11:33;67.60;;;28.63;;
75732;SDS011;73508;47.450;19.128;2024-01-15T08:13:59;64.35;;;26.87;;
75732;SDS011;73508;47.450;19.128;2024-01-15T08:16:24;69.40;;;27.03;;
75732;SDS011;73508;47.450;19.128;2024-01-15T08:18:50;58.47;;;28.10;;
75732;SDS011;73508;47.450;19.128;2024-01-15T08:21:15;54.90;;;24.53;;
75732;SDS011;73508;47.450;19.128;2024-01-15T08:23:40;50.28;;;22.77;;
75732;SDS011;73508;47.450;19.128;2024-01-15T08:26:06;44.83;;;20.37;;
75732;SDS011;73508;47.450;19.128;2024-01-15T08:28:32;41.03;;;18.23;;
75732;SDS011;73508;47.450;19.128;2024-01-15T08:30:57;43.20;;;19.10;;
75732;SDS011;73508;47.450;19.128;2024-01-15T08:33:23;39.87;;;16.93;;
75732;SDS011;73508;47.450;19.128;2024-01-15T08:35:49;41.90;;;17.08;;
75732;SDS011;73508;47.450;19.128;2024-01-15T08:38:15;32.70;;;15.10;;
75732;SDS011;73508;47.450;19.128;2024-01-15T08:40:40;44.90;;;17.57;;
75732;SDS011;73508;47.450;19.128;2024-01-15T08:43:05;31.37;;;15.40;;
75732;SDS011;73508;47.450;19.128;2024-01-15T08:45:31;38.17;;;18.10;;
75732;SDS011;73508;47.450;19.128;2024-01-15T08:47:57;48.60;;;19.37;;
75732;SDS011;73508;47.450;19.128;2024-01-15T08:50:22;49.13;;;19.40;;
75732;SDS011;73508;47.450;19.128;2024-01-15T08:52:48;50.97;;;19.37;;
75732;SDS011;73508;47.450;19.128;2024-01-15T08:55:13;49.20;;;20.17;;
75732;SDS011;73508;47.450;19.128;2024-01-15T08:57:38;43.60;;;18.70;;
75732;SDS011;73508;47.450;19.128;2024-01-15T09:00:04;31.00;;;14.65;;
75732;SDS011;73508;47.450;19.128;2024-01-15T09:02:33;28.60;;;14.03;;
75732;SDS011;73508;47.450;19.128;2024-01-15T09:04:59;29.02;;;12.15;;
75732;SDS011;73508;47.450;19.128;2024-01-15T09:07:24;17.73;;;8.87;;
75732;SDS011;73508;47.450;19.128;2024-01-15T09:09:51;15.65;;;7.43;;
75732;SDS011;73508;47.450;19.128;2024-01-15T09:12:16;21.67;;;8.63;;
75732;SDS011;73508;47.450;19.128;2024-01-15T09:14:43;22.65;;;9.35;;
75732;SDS011;73508;47.450;19.128;2024-01-15T09:17:09;22.63;;;9.17;;
75732;SDS011;73508;47.450;19.128;2024-01-15T09:19:34;16.03;;;7.63;;
75732;SDS011;73508;47.450;19.128;2024-01-15T09:21:59;15.13;;;6.53;;
75732;SDS011;73508;47.450;19.128;2024-01-15T09:24:25;14.80;;;6.45;;
75732;SDS011;73508;47.450;19.128;2024-01-15T09:26:50;14.30;;;6.33;;
75732;SDS011;73508;47.450;19.128;2024-01-15T09:29:15;14.60;;;6.70;;
75732;SDS011;73508;47.450;19.128;2024-01-15T09:31:41;20.00;;;8.60;;
75732;SDS011;73508;47.450;19.128;2024-01-15T09:34:06;18.83;;;7.80;;
75732;SDS011;73508;47.450;19.128;2024-01-15T09:36:32;12.93;;;6.22;;
75732;SDS011;73508;47.450;19.128;2024-01-15T09:38:57;17.20;;;7.60;;
75732;SDS011;73508;47.450;19.128;2024-01-15T09:41:23;14.57;;;6.60;;
75732;SDS011;73508;47.450;19.128;2024-01-15T09:43:48;14.47;;;6.57;;
75732;SDS011;73508;47.450;19.128;2024-01-15T09:46:13;15.47;;;6.40;;
75732;SDS011;73508;47.450;19.128;2024-01-15T09:48:40;13.90;;;6.73;;
75732;SDS011;73508;47.450;19.128;2024-01-15T09:51:06;15.80;;;7.50;;
75732;SDS011;73508;47.450;19.128;2024-01-15T09:53:32;15.13;;;6.78;;
75732;SDS011;73508;47.450;19.128;2024-01-15T09:55:59;15.37;;;7.27;;
75732;SDS011;73508;47.450;19.128;2024-01-15T09:58:25;15.77;;;6.45;;
75732;SDS011;73508;47.450;19.128;2024-01-15T10:00:50;17.67;;;6.57;;
75732;SDS011;73508;47.450;19.128;2024-01-15T10:03:16;13.45;;;5.95;;
75732;SDS011;73508;47.450;19.128;2024-01-15T10:05:42;21.53;;;7.23;;
75732;SDS011;73508;47.450;19.128;2024-01-15T10:08:08;16.23;;;6.22;;
75732;SDS011;73508;47.450;19.128;2024-01-15T10:10:35;14.32;;;7.00;;
75732;SDS011;73508;47.450;19.128;2024-01-15T10:13:01;14.83;;;6.27;;
75732;SDS011;73508;47.450;19.128;2024-01-15T10:15:28;16.45;;;7.10;;
75732;SDS011;73508;47.450;19.128;2024-01-15T10:17:54;15.27;;;6.28;;
75732;SDS011;73508;47.450;19.128;2024-01-15T10:20:19;13.80;;;6.10;;
75732;SDS011;73508;47.450;19.128;2024-01-15T10:22:47;13.80;;;5.93;;
75732;SDS011;73508;47.450;19.128;2024-01-15T10:25:13;13.60;;;5.83;;
75732;SDS011;73508;47.450;19.128;2024-01-15T10:27:39;13.90;;;6.00;;
75732;SDS011;73508;47.450;19.128;2024-01-15T10:30:06;14.23;;;6.00;;
75732;SDS011;73508;47.450;19.128;2024-01-15T10:32:32;12.00;;;5.57;;
75732;SDS011;73508;47.450;19.128;2024-01-15T10:34:57;15.63;;;5.60;;
75732;SDS011;73508;47.450;19.128;2024-01-15T10:37:24;11.57;;;5.30;;
75732;SDS011;73508;47.450;19.128;2024-01-15T10:39:49;12.57;;;5.62;;
75732;SDS011;73508;47.450;19.128;2024-01-15T10:42:14;17.97;;;6.13;;
75732;SDS011;73508;47.450;19.128;2024-01-15T10:44:41;11.93;;;5.43;;
75732;SDS011;73508;47.450;19.128;2024-01-15T10:47:08;13.10;;;5.57;;
75732;SDS011;73508;47.450;19.128;2024-01-15T10:49:34;11.07;;;5.03;;
75732;SDS011;73508;47.450;19.128;2024-01-15T10:52:00;14.80;;;5.97;;
75732;SDS011;73508;47.450;19.128;2024-01-15T10:54:26;15.30;;;5.93;;
75732;SDS011;73508;47.450;19.128;2024-01-15T10:56:52;13.50;;;6.07;;
75732;SDS011;73508;47.450;19.128;2024-01-15T10:59:19;11.80;;;5.72;;
75732;SDS011;73508;47.450;19.128;2024-01-15T11:01:45;16.57;;;5.67;;
75732;SDS011;73508;47.450;19.128;2024-01-15T11:04:11;9.90;;;4.62;;
75732;SDS011;73508;47.450;19.128;2024-01-15T11:06:44;12.07;;;5.30;;
75732;SDS011;73508;47.450;19.128;2024-01-15T11:09:11;9.05;;;5.07;;
75732;SDS011;73508;47.450;19.128;2024-01-15T11:11:44;11.27;;;5.23;;
75732;SDS011;73508;47.450;19.128;2024-01-15T11:14:10;11.35;;;4.70;;
75732;SDS011;73508;47.450;19.128;2024-01-15T11:19:34;11.30;;;4.62;;
75732;SDS011;73508;47.450;19.128;2024-01-15T11:22:01;11.75;;;4.22;;
75732;SDS011;73508;47.450;19.128;2024-01-15T11:24:34;10.37;;;4.73;;
75732;SDS011;73508;47.450;19.128;2024-01-15T11:27:01;8.65;;;4.45;;
75732;SDS011;73508;47.450;19.128;2024-01-15T11:34:20;8.30;;;4.22;;
75732;SDS011;73508;47.450;19.128;2024-01-15T11:41:52;11.90;;;4.50;;
75732;SDS011;73508;47.450;19.128;2024-01-15T11:44:22;11.30;;;4.27;;
75732;SDS011;73508;47.450;19.128;2024-01-15T11:46:58;10.00;;;4.37;;
75732;SDS011;73508;47.450;19.128;2024-01-15T11:52:26;9.63;;;4.03;;
75732;SDS011;73508;47.450;19.128;2024-01-15T11:55:00;8.40;;;3.50;;
75732;SDS011;73508;47.450;19.128;2024-01-15T11:57:50;8.52;;;4.05;;
75732;SDS011;73508;47.450;19.128;2024-01-15T12:00:18;8.07;;;3.53;;
75732;SDS011;73508;47.450;19.128;2024-01-15T12:02:45;9.20;;;4.10;;
75732;SDS011;73508;47.450;19.128;2024-01-15T12:05:11;8.57;;;4.10;;
75732;SDS011;73508;47.450;19.128;2024-01-15T12:07:38;10.77;;;4.78;;
75732;SDS011;73508;47.450;19.128;2024-01-15T12:10:10;9.25;;;4.20;;
75732;SDS011;73508;47.450;19.128;2024-01-15T12:15:23;8.93;;;4.05;;
75732;SDS011;73508;47.450;19.128;2024-01-15T12:17:49;12.43;;;4.33;;
75732;SDS011;73508;47.450;19.128;2024-01-15T12:20:14;9.00;;;3.83;;
75732;SDS011;73508;47.450;19.128;2024-01-15T12:22:41;9.00;;;3.97;;
75732;SDS011;73508;47.450;19.128;2024-01-15T12:25:06;8.57;;;3.75;;
75732;SDS011;73508;47.450;19.128;2024-01-15T12:27:32;7.57;;;3.40;;
75732;SDS011;73508;47.450;19.128;2024-01-15T12:29:58;9.45;;;4.00;;
75732;SDS011;73508;47.450;19.128;2024-01-15T12:32:24;7.87;;;3.97;;
75732;SDS011;73508;47.450;19.128;2024-01-15T12:34:49;6.85;;;3.28;;
75732;SDS011;73508;47.450;19.128;2024-01-15T12:37:15;8.70;;;3.37;;
75732;SDS011;73508;47.450;19.128;2024-01-15T12:39:43;7.93;;;3.17;;
75732;SDS011;73508;47.450;19.128;2024-01-15T12:42:09;12.73;;;3.50;;
75732;SDS011;73508;47.450;19.128;2024-01-15T12:44:35;9.20;;;3.35;;
75732;SDS011;73508;47.450;19.128;2024-01-15T12:47:02;7.10;;;3.22;;
75732;SDS011;73508;47.450;19.128;2024-01-15T12:49:29;8.27;;;3.65;;
75732;SDS011;73508;47.450;19.128;2024-01-15T12:51:54;10.80;;;3.20;;
75732;SDS011;73508;47.450;19.128;2024-01-15T12:54:22;9.38;;;3.45;;
75732;SDS011;73508;47.450;19.128;2024-01-15T12:56:48;6.90;;;2.90;;
75732;SDS011;73508;47.450;19.128;2024-01-15T12:59:14;9.17;;;3.63;;
75732;SDS011;73508;47.450;19.128;2024-01-15T13:01:39;8.43;;;3.67;;
75732;SDS011;73508;47.450;19.128;2024-01-15T13:04:05;8.45;;;3.75;;
75732;SDS011;73508;47.450;19.128;2024-01-15T13:06:33;9.30;;;3.60;;
75732;SDS011;73508;47.450;19.128;2024-01-15T13:08:59;7.65;;;3.37;;
75732;SDS011;73508;47.450;19.128;2024-01-15T13:11:24;8.00;;;3.27;;
75732;SDS011;73508;47.450;19.128;2024-01-15T13:13:50;9.27;;;3.50;;
75732;SDS011;73508;47.450;19.128;2024-01-15T13:16:16;7.90;;;3.27;;
75732;SDS011;73508;47.450;19.128;2024-01-15T13:18:41;8.30;;;3.40;;
75732;SDS011;73508;47.450;19.128;2024-01-15T13:21:06;9.53;;;3.10;;
75732;SDS011;73508;47.450;19.128;2024-01-15T13:23:32;7.27;;;3.20;;
75732;SDS011;73508;47.450;19.128;2024-01-15T13:25:57;7.00;;;2.77;;
75732;SDS011;73508;47.450;19.128;2024-01-15T13:28:23;10.00;;;3.30;;
75732;SDS011;73508;47.450;19.128;2024-01-15T13:30:48;7.07;;;3.33;;
75732;SDS011;73508;47.450;19.128;2024-01-15T13:33:14;8.57;;;3.10;;
75732;SDS011;73508;47.450;19.128;2024-01-15T13:35:39;9.10;;;2.95;;
75732;SDS011;73508;47.450;19.128;2024-01-15T13:38:04;6.70;;;2.87;;
75732;SDS011;73508;47.450;19.128;2024-01-15T13:40:30;6.30;;;2.73;;
75732;SDS011;73508;47.450;19.128;2024-01-15T13:42:55;7.53;;;2.80;;
75732;SDS011;73508;47.450;19.128;2024-01-15T13:45:20;7.43;;;2.77;;
75732;SDS011;73508;47.450;19.128;2024-01-15T13:47:46;9.40;;;3.57;;
75732;SDS011;73508;47.450;19.128;2024-01-15T13:50:11;9.97;;;3.50;;
75732;SDS011;73508;47.450;19.128;2024-01-15T13:52:37;11.60;;;3.75;;
75732;SDS011;73508;47.450;19.128;2024-01-15T13:55:03;7.73;;;2.93;;
75732;SDS011;73508;47.450;19.128;2024-01-15T13:57:28;7.60;;;3.23;;
75732;SDS011;73508;47.450;19.128;2024-01-15T13:59:53;8.23;;;3.03;;
75732;SDS011;73508;47.450;19.128;2024-01-15T14:02:20;7.55;;;3.20;;
75732;SDS011;73508;47.450;19.128;2024-01-15T14:04:45;7.77;;;3.07;;
75732;SDS011;73508;47.450;19.128;2024-01-15T14:07:11;8.15;;;3.12;;
75732;SDS011;73508;47.450;19.128;2024-01-15T14:09:36;9.00;;;3.17;;
75732;SDS011;73508;47.450;19.128;2024-01-15T14:12:02;7.80;;;3.05;;
75732;SDS011;73508;47.450;19.128;2024-01-15T14:14:28;7.67;;;2.73;;
75732;SDS011;73508;47.450;19.128;2024-01-15T14:16:53;7.70;;;2.67;;
75732;SDS011;73508;47.450;19.128;2024-01-15T14:19:18;9.70;;;2.80;;
75732;SDS011;73508;47.450;19.128;2024-01-15T14:21:45;8.68;;;2.90;;
75732;SDS011;73508;47.450;19.128;2024-01-15T14:24:10;5.93;;;2.73;;
75732;SDS011;73508;47.450;19.128;2024-01-15T14:26:36;9.23;;;2.80;;